Latest Weather Observations for Point Perpendicular

IDN60801

Issued at 10:03 am EDT Monday 20 February 2017 (issued every 30 minutes, with the page automatically refreshed every 10 minutes)

About weather observations | Map of weather stations | Latest weather observations for NSW | Other Formats
Station Details ID: 068151 Name: POINT PERPENDICULAR AWS Lat: -35.09 Lon: 150.80 Height: 85.0 m
Data from the previous 72 hours. | See also: Recent months at Point Perpendicular
Date/Time
EDT
Temp
°C
App
Temp
°C
Dew
Point
°C
Rel
Hum
%
Delta-T
°C
Wind Press
QNH
hPa
Press
MSL
hPa
Rain since
9am
mm
Dir  Spd
km/h
Gust
km/h
Spd
kts
Gust
kts
20/10:00am 17.4 14.3 5.7 46 5.7 W 11 20 6 11 1010.2 1009.9 0.0
20/09:30am 16.5 13.3 5.2 47 5.4 WNW 11 19 6 10 1010.1 1009.8 0.0
20/09:00am 16.2 12.9 6.3 52 4.8 W 13 24 7 13 1009.9 1009.6 0.0
20/08:30am 15.7 12.2 5.6 51 4.9 WNW 13 26 7 14 1009.9 1009.6 0.0
20/08:00am 15.5 12.9 6.2 54 4.5 W 9 19 5 10 1009.6 1009.3 0.0
20/07:30am 15.3 12.3 5.8 53 4.6 W 11 19 6 10 1009.1 1008.8 0.0
20/07:00am 15.6 12.8 7.1 57 4.2 WNW 11 17 6 9 1008.7 1008.4 0.0
20/06:30am 15.9 13.7 6.3 53 4.7 W 7 17 4 9 1008.4 1008.1 0.0
20/06:00am 16.5 13.0 7.2 54 4.7 WNW 15 30 8 16 1008.2 1007.9 0.0
20/05:30am 16.9 13.0 7.0 52 4.9 WNW 17 30 9 16 1007.3 1007.0 0.0
20/05:00am 17.4 13.6 7.5 52 5.0 WNW 17 30 9 16 1006.8 1006.5 0.0
20/04:30am 17.7 14.8 6.3 47 5.6 W 11 20 6 11 1006.7 1006.4 0.0
20/04:00am 18.2 14.9 6.4 46 5.9 W 13 26 7 14 1006.7 1006.4 0.0
20/03:30am 18.4 16.0 7.2 48 5.7 W 9 22 5 12 1006.5 1006.2 0.0
20/03:00am 18.7 16.2 6.5 45 6.1 W 9 19 5 10 1006.7 1006.4 0.0
20/02:30am 19.1 16.4 5.6 41 6.6 W 9 19 5 10 1006.6 1006.3 0.0
20/02:00am 19.3 17.1 6.1 42 6.6 W 7 15 4 8 1006.5 1006.2 0.0
20/01:30am 19.0 16.9 6.5 44 6.3 W 7 13 4 7 1006.8 1006.5 0.0
20/01:00am 19.5 17.2 5.9 41 6.8 W 7 17 4 9 1006.5 1006.2 0.0
20/12:30am 19.6 18.0 8.0 47 6.0 WNW 6 11 3 6 1006.8 1006.5 0.0
20/12:00am 20.1 18.7 8.8 48 6.0 W 6 7 3 4 1006.7 1006.4 0.0
 
Date/Time
EDT
Temp
°C
App
Temp
°C
Dew
Point
°C
Rel
Hum
%
Delta-T
°C
Wind Press
QNH
hPa
Press
MSL
hPa
Rain since
9am
mm
Dir  Spd
km/h
Gust
km/h
Spd
kts
Gust
kts
19/11:30pm 20.7 20.5 12.9 61 4.4 WNW 6 7 3 4 1007.0 1006.7 0.0
19/11:00pm 20.1 22.0 17.7 86 1.5 W 4 6 2 3 1007.2 1006.9 0.0
19/10:30pm 20.4 22.3 17.6 84 1.7 W 4 6 2 3 1006.4 1006.1 0.0
19/10:00pm 20.3 22.5 17.5 84 1.7 W 2 4 1 2 1006.3 1006.0 0.0
19/09:30pm 20.0 21.6 17.0 83 1.8 NNW 4 6 2 3 1006.6 1006.3 0.0
19/09:00pm 20.2 21.4 16.8 81 2.1 N 6 7 3 4 1006.9 1006.6 0.0
19/08:30pm 20.1 20.4 16.1 78 2.4 NNE 9 11 5 6 1006.7 1006.4 0.0
19/08:00pm 20.7 21.2 16.5 77 2.6 NE 9 13 5 7 1006.6 1006.3 0.0
19/07:30pm 21.0 20.8 16.6 76 2.7 NE 13 19 7 10 1006.3 1006.0 0.0
19/07:00pm 21.3 21.1 15.8 71 3.3 ENE 11 17 6 9 1006.2 1005.9 0.0
19/06:30pm 21.7 21.3 15.3 67 3.8 ENE 11 17 6 9 1005.7 1005.4 0.0
19/06:00pm 21.8 20.9 14.9 65 4.1 ENE 13 19 7 10 1005.5 1005.2 0.0
19/05:30pm 22.8 22.8 15.1 62 4.6 ENE 9 15 5 8 1005.7 1005.4 0.0
19/05:00pm 22.8 22.4 15.1 62 4.6 E 11 20 6 11 1005.7 1005.4 0.0
19/04:30pm 22.6 22.4 14.7 61 4.7 E 9 13 5 7 1005.8 1005.5 0.0
19/04:00pm 22.4 21.9 14.8 62 4.5 E 11 19 6 10 1006.0 1005.7 0.0
19/03:30pm 22.2 21.2 14.6 62 4.5 SE 13 17 7 9 1006.4 1006.1 0.0
19/03:00pm 21.0 19.9 14.2 65 4.0 ESE 13 19 7 10 1006.7 1006.4 0.0
19/02:30pm 20.9 19.7 15.0 69 3.5 SE 15 22 8 12 1006.8 1006.5 0.0
19/02:00pm 20.7 19.8 14.8 69 3.5 SE 13 19 7 10 1007.2 1006.9 0.0
19/01:30pm 21.2 20.7 16.0 72 3.1 SSE 13 20 7 11 1007.6 1007.3 0.0
19/01:00pm 20.6 20.0 15.6 73 3.0 SSE 13 19 7 10 1007.9 1007.6 0.0
19/12:30pm 19.7 18.0 14.7 73 2.9 S 17 24 9 13 1008.4 1008.1 0.0
19/12:00pm 19.4 17.8 14.9 75 2.6 SSW 17 24 9 13 1008.7 1008.4 0.0
19/11:30am 18.7 17.3 14.4 76 2.5 SSW 15 24 8 13 1009.0 1008.7 0.0
19/11:00am 18.2 15.6 13.7 75 2.6 SSW 20 26 11 14 1009.2 1008.9 0.0
19/10:30am 18.2 16.2 13.9 76 2.5 SW 17 28 9 15 1009.6 1009.3 0.0
19/10:00am 17.9 16.2 13.6 76 2.5 SW 15 24 8 13 1009.5 1009.2 0.0
19/09:30am 17.5 15.0 13.6 78 2.2 WSW 19 30 10 16 1009.5 1009.2 0.0
19/09:00am 17.2 15.1 13.7 80 2.0 WSW 17 24 9 13 1009.7 1009.4 8.0
19/08:30am 16.8 14.9 14.3 85 1.4 WSW 17 30 9 16 1009.5 1009.2 8.0
19/08:00am 16.9 15.3 14.9 88 1.2 SW 17 32 9 17 1009.2 1008.9 8.0
19/07:30am 16.6 14.4 14.8 89 1.0 SW 20 32 11 17 1009.5 1009.2 8.0
19/07:00am 17.0 15.5 15.2 89 1.1 SW 17 24 9 13 1009.4 1009.1 8.0
19/06:30am 17.7 15.9 16.0 90 1.0 SW 20 35 11 19 1008.5 1008.2 8.0
19/06:00am 18.2 15.1 15.6 85 1.5 SSW 26 43 14 23 1008.1 1007.8 8.0
19/05:30am 18.1 14.7 14.8 81 1.9 SSW 26 39 14 21 1007.7 1007.4 8.0
19/05:14am 18.0 14.2 14.7 81 1.9 SSW 28 46 15 25 1007.6 1007.3 8.0
19/05:00am 18.0 14.4 15.3 84 1.6 SSW 28 41 15 22 1007.8 1007.5 8.0
19/04:30am 17.8 14.1 16.0 89 1.1 SSW 30 52 16 28 1007.4 1007.1 8.0
19/04:28am 17.8 14.1 16.1 90 1.0 SSW 30 52 16 28 1007.3 1007.0 8.0
19/04:00am 18.1 14.4 16.1 88 1.2 SSW 30 46 16 25 1007.3 1007.0 8.0
19/03:30am 17.7 13.6 16.0 90 1.0 SSW 32 41 17 22 1007.5 1007.2 8.0
19/03:00am 17.7 13.7 16.2 91 0.9 SSW 32 46 17 25 1007.5 1007.2 8.0
19/02:30am 17.9 14.0 16.9 94 0.6 SSW 33 46 18 25 1006.8 1006.5 8.0
19/02:00am 18.2 13.9 17.0 93 0.7 SSW 35 48 19 26 1006.5 1006.2 8.0
19/01:30am 18.1 14.9 18.1 100 0.0 SSW 32 52 17 28 1006.9 1006.6 8.0
19/01:26am 18.2 15.4 18.2 100 0.0 SSW 30 50 16 27 1007.1 1006.8 8.0
19/01:00am 18.3 15.9 18.3 100 0.0 SW 28 41 15 22 1007.8 1007.5 8.0
19/12:30am 19.0 17.3 18.0 94 0.6 SSW 24 39 13 21 1007.8 1007.5 7.8
19/12:00am 19.3 17.0 18.5 95 0.5 SSW 28 41 15 22 1007.4 1007.1 7.8
 
Date/Time
EDT
Temp
°C
App
Temp
°C
Dew
Point
°C
Rel
Hum
%
Delta-T
°C
Wind Press
QNH
hPa
Press
MSL
hPa
Rain since
9am
mm
Dir  Spd
km/h
Gust
km/h
Spd
kts
Gust
kts
18/11:30pm 19.5 17.4 19.0 97 0.3 SSW 28 41 15 22 1007.7 1007.4 7.8
18/11:00pm 19.8 18.2 19.1 96 0.4 SSW 26 39 14 21 1007.7 1007.4 7.8
18/10:30pm 20.0 19.3 18.7 92 0.8 SW 20 30 11 16 1007.8 1007.5 7.8
18/10:00pm 20.6 20.8 17.6 83 1.9 SW 13 22 7 12 1008.3 1008.0 7.8
18/09:30pm 20.5 19.9 18.4 88 1.3 SSW 19 24 10 13 1007.7 1007.4 7.8
18/09:00pm 20.7 22.1 18.6 88 1.3 SW 9 19 5 10 1007.5 1007.2 7.8
18/08:30pm 20.7 23.3 18.5 87 1.4 W 2 6 1 3 1007.2 1006.9 7.8
18/08:00pm 20.8 23.5 18.6 87 1.4 W 2 4 1 2 1007.3 1007.0 7.8
18/07:30pm 20.8 23.7 19.1 90 1.1 W 2 4 1 2 1006.9 1006.6 7.8
18/07:00pm 20.8 23.6 19.6 93 0.8 WNW 4 11 2 6 1006.4 1006.1 7.8
18/06:30pm 20.8 23.9 19.5 92 0.8 S 2 4 1 2 1006.0 1005.7 7.8
18/06:00pm 20.8 23.0 19.5 92 0.8 S 7 11 4 6 1005.7 1005.4 7.8
18/05:30pm 20.7 21.1 19.0 90 1.1 SSW 15 22 8 12 1005.9 1005.6 7.8
18/05:00pm 20.8 20.8 18.9 89 1.2 SSW 17 22 9 12 1005.8 1005.5 7.8
18/04:30pm 20.9 20.2 18.7 87 1.4 SSW 20 28 11 15 1005.8 1005.5 7.8
18/04:08pm 20.9 21.9 18.7 87 1.4 WSW 11 35 6 19 1006.8 1006.5 7.8
18/04:00pm 20.9 19.5 18.7 87 1.4 SSW 24 39 13 21 1004.8 1004.5 7.8
18/03:30pm 20.8 20.1 18.6 87 1.4 SSW 20 28 11 15 1005.9 1005.6 7.8
18/03:00pm 21.9 21.9 18.9 83 1.9 SSW 17 26 9 14 1006.1 1005.8 7.8
18/02:30pm 21.4 21.8 19.1 87 1.5 SSW 15 26 8 14 1006.6 1006.3 7.8
18/02:00pm 20.4 20.2 18.5 89 1.2 SSW 17 26 9 14 1006.3 1006.0 7.8
18/01:30pm 20.3 20.2 19.6 96 0.4 SSW 19 28 10 15 1006.2 1005.9 7.8
18/01:00pm 19.8 19.8 19.8 100 0.0 SSW 19 26 10 14 1006.7 1006.4 7.8
18/12:30pm 19.1 19.5 19.1 100 0.0 SSE 15 20 8 11 1006.8 1006.5 7.2
18/12:23pm 19.1 19.5 19.1 100 0.0 SE 15 20 8 11 1006.3 1006.0 6.8
18/12:00pm 19.3 20.9 19.1 99 0.1 WSW 9 20 5 11 1008.4 1008.1 5.6
18/11:30am 20.0 22.1 19.3 96 0.4 SSW 7 13 4 7 1008.0 1007.7 0.8
18/11:00am 20.2 21.4 19.9 98 0.2 S 13 26 7 14 1006.7 1006.4 0.8
18/10:59am 20.4 21.7 20.1 98 0.2 S 13 20 7 11 1006.7 1006.4 0.8
18/10:30am 20.2 22.4 19.2 94 0.6 SSE 6 9 3 5 1008.7 1008.4 0.4
18/10:00am 20.4 21.7 19.2 93 0.8 SW 11 20 6 11 1009.5 1009.2 0.2
18/09:59am 20.4 21.3 19.2 93 0.8 SW 13 20 7 11 1009.4 1009.1 0.0
18/09:30am 20.5 21.0 19.2 92 0.8 S 15 26 8 14 1007.3 1007.0 0.0
18/09:00am 20.6 20.0 19.8 95 0.5 SSW 22 32 12 17 1006.8 1006.5 0.0
18/08:30am 20.7 19.5 20.0 96 0.4 SSW 26 43 14 23 1006.0 1005.7 0.0
18/08:00am 20.9 20.5 20.2 96 0.5 SSW 22 32 12 17 1006.7 1006.4 0.0
18/07:30am 20.8 20.7 20.8 100 0.0 SSW 22 35 12 19 1006.3 1006.0 0.0
18/07:00am 20.7 21.0 20.7 100 0.0 SSW 20 30 11 16 1006.3 1006.0 0.0
18/06:30am 20.7 21.1 20.7 100 0.0 SSW 19 26 10 14 1006.2 1005.9 0.0
18/06:00am 20.6 21.0 20.6 100 0.0 SSW 19 28 10 15 1006.0 1005.7 0.0
18/05:30am 20.7 21.1 20.7 100 0.0 SSW 19 30 10 16 1006.1 1005.8 0.0
18/05:00am 20.7 20.6 20.7 100 0.0 SSW 22 32 12 17 1005.6 1005.3 0.0
18/04:30am 20.6 21.8 20.6 100 0.0 SSW 15 24 8 13 1005.4 1005.1 0.0
18/04:00am 20.7 21.0 20.7 100 0.0 SSW 20 30 11 16 1005.9 1005.6 0.0
18/03:30am 20.7 21.1 20.7 100 0.0 SSW 19 26 10 14 1006.0 1005.7 0.0
18/03:00am 20.8 21.7 20.8 100 0.0 SSW 17 24 9 13 1006.0 1005.7 0.0
18/02:30am 20.8 21.3 20.8 100 0.0 SSW 19 26 10 14 1006.2 1005.9 0.0
18/02:00am 21.0 22.0 21.0 100 0.0 SSW 17 28 9 15 1006.6 1006.3 0.0
18/01:30am 21.1 22.1 21.1 100 0.0 SSW 17 26 9 14 1006.9 1006.6 0.0
18/01:00am 21.1 22.1 21.1 100 0.0 SW 17 28 9 15 1007.4 1007.1 0.0
18/12:30am 21.2 22.7 21.2 100 0.0 SSW 15 20 8 11 1007.2 1006.9 0.0
18/12:00am 21.5 24.3 21.5 100 0.0 S 9 19 5 10 1007.6 1007.3 0.0
 
Date/Time
EDT
Temp
°C
App
Temp
°C
Dew
Point
°C
Rel
Hum
%
Delta-T
°C
Wind Press
QNH
hPa
Press
MSL
hPa
Rain since
9am
mm
Dir  Spd
km/h
Gust
km/h
Spd
kts
Gust
kts
17/11:30pm 23.8 23.9 19.9 79 2.5 N 19 30 10 16 1007.9 1007.6 0.0
17/11:00pm 24.1 22.0 19.8 77 2.8 N 30 43 16 23 1007.6 1007.3 0.0
17/10:30pm 24.8 22.2 19.4 72 3.5 N 32 44 17 24 1007.1 1006.8 0.0
17/10:06pm 24.3 21.7 20.0 77 2.8 N 33 52 18 28 1006.7 1006.4 0.0
17/10:00pm 24.3 21.9 20.0 77 2.8 N 32 48 17 26 1006.8 1006.5 0.0
17/09:30pm 23.6 22.2 20.5 83 2.0 N 28 39 15 21 1006.8 1006.5 0.0
17/09:00pm 24.1 21.2 20.0 78 2.7 N 35 50 19 27 1006.2 1005.9 0.0
17/08:36pm 24.7 21.8 19.3 72 3.5 N 33 52 18 28 1006.2 1005.9 0.0
17/08:30pm 24.9 21.2 19.1 70 3.7 N 37 52 20 28 1006.1 1005.8 0.0
17/08:00pm 25.0 21.6 18.9 69 3.9 N 35 56 19 30 1006.0 1005.7 0.0
17/07:31pm 25.3 22.6 19.7 71 3.6 NNE 33 52 18 28 1005.6 1005.3 0.0
17/07:30pm 25.3 22.8 19.7 71 3.6 NNE 32 46 17 25 1005.6 1005.3 0.0
17/07:06pm 24.6 22.2 19.9 75 3.0 N 32 50 17 27 1005.4 1005.1 0.0
17/07:00pm 24.6 21.8 20.3 77 2.8 N 35 52 19 28 1005.3 1005.0 0.0
17/06:30pm 25.2 22.5 20.5 75 3.1 N 35 54 19 29 1005.2 1004.9 0.0
17/06:14pm 26.2 25.3 21.4 75 3.2 NNE 28 56 15 30 1005.4 1005.1 0.0
17/06:00pm 27.0 26.3 19.4 63 4.9 NNE 22 32 12 17 1004.9 1004.6 0.0
17/05:32pm 26.6 24.2 19.2 64 4.8 NNE 30 48 16 26 1004.5 1004.2 0.0
17/05:30pm 26.6 24.0 19.5 65 4.6 NNE 32 48 17 26 1004.4 1004.1 0.0
17/05:14pm 26.3 24.5 20.4 70 3.9 NNE 30 48 16 26 1004.6 1004.3 0.0
17/05:00pm 25.7 25.0 21.1 76 3.1 N 26 39 14 21 1005.0 1004.7 0.0
17/04:30pm 26.2 26.1 22.3 79 2.6 NE 26 37 14 20 1004.0 1003.7 0.0
17/04:00pm 26.7 24.5 19.6 65 4.6 NNE 30 41 16 22 1004.1 1003.8 0.0
17/03:30pm 26.2 22.8 19.8 68 4.2 N 37 61 20 33 1004.5 1004.2 0.0
17/03:06pm 27.7 25.0 22.0 71 3.8 NNE 39 59 21 32 1005.1 1004.8 0.0
17/03:00pm 28.4 26.4 22.6 71 4.0 NNE 37 52 20 28 1004.8 1004.5 0.0
17/02:30pm 28.0 26.7 23.2 75 3.3 NNE 35 46 19 25 1004.9 1004.6 0.0
17/02:00pm 27.8 27.0 23.0 75 3.3 NNE 32 46 17 25 1005.3 1005.0 0.0
17/01:30pm 27.9 26.8 22.4 72 3.7 NNE 32 44 17 24 1005.8 1005.5 0.0
17/01:00pm 28.2 27.4 21.7 68 4.4 NNE 28 39 15 21 1006.5 1006.2 0.0
17/12:30pm 28.8 27.7 21.8 66 4.7 NNE 30 41 16 22 1007.0 1006.7 0.0
17/12:00pm 29.1 29.0 20.8 61 5.5 NNE 22 32 12 17 1007.5 1007.2 0.0
17/11:30am 28.0 27.4 21.3 67 4.5 N 26 39 14 21 1007.9 1007.6 0.0
17/11:00am 27.2 25.6 21.5 71 3.8 NNE 32 39 17 21 1008.2 1007.9 0.0
17/10:30am 26.8 26.2 22.0 75 3.2 N 28 37 15 20 1008.3 1008.0 0.0

Other Formats:

Comma delimited format used in spreadsheet applications
http://www.bom.gov.au/fwo/IDN60801/IDN60801.95940.axf

JavaScript Object Notation format (JSON) in row-major order
http://www.bom.gov.au/fwo/IDN60801/IDN60801.95940.json